createdAt,value
2022-09-02T00:01:45.388Z,14.20
2022-09-02T00:04:20.150Z,14.20
2022-09-02T00:06:51.886Z,14.20
2022-09-02T00:09:24.919Z,14.30
2022-09-02T00:11:53.866Z,14.20
2022-09-02T00:14:31.179Z,14.20
2022-09-02T00:17:00.808Z,14.20
2022-09-02T00:19:29.781Z,14.20
2022-09-02T00:21:58.269Z,14.20
2022-09-02T00:24:28.580Z,14.20
2022-09-02T00:26:56.777Z,14.20
2022-09-02T00:29:26.321Z,14.20
2022-09-02T00:31:53.718Z,14.20
2022-09-02T00:34:21.107Z,14.20
2022-09-02T00:36:48.309Z,14.10
2022-09-02T00:39:15.828Z,14.10
2022-09-02T00:41:45.866Z,14.10
2022-09-02T00:44:16.171Z,14.00
2022-09-02T00:46:46.585Z,14.00
2022-09-02T00:49:16.818Z,13.90
2022-09-02T00:51:49.136Z,13.90
2022-09-02T00:54:19.382Z,13.90
2022-09-02T00:56:53.813Z,13.80
2022-09-02T00:59:46.947Z,13.70
2022-09-02T01:02:15.582Z,13.70
2022-09-02T01:04:46.709Z,13.70
2022-09-02T01:07:16.094Z,13.70
2022-09-02T01:09:45.993Z,13.60
2022-09-02T01:12:16.212Z,13.60
2022-09-02T01:14:45.993Z,13.60
2022-09-02T01:17:19.591Z,13.50
2022-09-02T01:19:51.278Z,13.50
2022-09-02T01:22:29.026Z,13.40
2022-09-02T01:25:00.778Z,13.30
2022-09-02T01:27:28.222Z,13.30
2022-09-02T01:29:58.028Z,13.30
2022-09-02T01:32:27.998Z,13.20
2022-09-02T01:34:58.109Z,13.20
2022-09-02T01:37:33.238Z,13.20
2022-09-02T01:40:03.407Z,13.20
2022-09-02T01:42:32.966Z,13.10
2022-09-02T01:45:03.739Z,13.10
2022-09-02T01:47:36.220Z,13.10
2022-09-02T01:50:09.610Z,13.10
2022-09-02T01:52:37.273Z,13.00
2022-09-02T01:55:07.139Z,13.00
2022-09-02T01:57:41.563Z,13.00
2022-09-02T02:00:11.989Z,13.00
2022-09-02T02:02:44.034Z,13.00
2022-09-02T02:05:17.009Z,12.90
2022-09-02T02:07:48.415Z,12.90
2022-09-02T02:10:20.443Z,12.90
2022-09-02T02:12:50.202Z,12.90
2022-09-02T02:15:21.187Z,12.80
2022-09-02T02:17:50.345Z,12.90
2022-09-02T02:20:19.053Z,12.80
2022-09-02T02:22:47.077Z,12.80
2022-09-02T02:25:15.313Z,12.80
2022-09-02T02:27:49.189Z,12.80
2022-09-02T02:30:17.539Z,12.80
2022-09-02T02:32:47.307Z,12.70
2022-09-02T02:35:19.252Z,12.70
2022-09-02T02:37:50.560Z,12.70
2022-09-02T02:40:21.741Z,12.70
2022-09-02T02:42:53.662Z,12.70
2022-09-02T02:45:28.809Z,12.70
2022-09-02T02:48:01.138Z,12.70
2022-09-02T02:50:33.939Z,12.70
2022-09-02T02:53:03.635Z,12.60
2022-09-02T02:55:35.401Z,12.60
2022-09-02T02:58:02.881Z,12.60
2022-09-02T03:00:32.807Z,12.50
2022-09-02T03:03:08.922Z,12.50
2022-09-02T03:05:37.949Z,12.40
2022-09-02T03:08:09.056Z,12.50
2022-09-02T03:10:41.912Z,12.50
2022-09-02T03:13:12.172Z,12.40
2022-09-02T03:15:40.221Z,12.50
2022-09-02T03:18:14.298Z,12.50
2022-09-02T03:20:42.410Z,12.50
2022-09-02T03:23:12.799Z,12.40
2022-09-02T03:25:46.760Z,12.50
2022-09-02T03:28:26.608Z,12.50
2022-09-02T03:30:56.574Z,12.40
2022-09-02T03:33:30.092Z,12.40
2022-09-02T03:35:57.734Z,12.40
2022-09-02T03:38:27.792Z,12.40
2022-09-02T03:40:59.910Z,12.30
2022-09-02T03:43:29.536Z,12.30
2022-09-02T03:45:58.667Z,12.30
2022-09-02T03:48:30.644Z,12.30
2022-09-02T03:50:58.013Z,12.30
2022-09-02T03:53:27.001Z,12.30
2022-09-02T03:55:58.057Z,12.30
2022-09-02T03:58:27.478Z,12.20
2022-09-02T04:00:56.437Z,12.30
2022-09-02T04:03:25.687Z,12.30
2022-09-02T04:05:53.533Z,12.30
2022-09-02T04:08:25.651Z,12.30
2022-09-02T04:10:56.294Z,12.20
2022-09-02T04:13:23.768Z,12.20
2022-09-02T04:15:51.902Z,12.20
2022-09-02T04:18:22.538Z,12.20
2022-09-02T04:20:51.726Z,12.20
2022-09-02T04:23:22.832Z,12.20
2022-09-02T04:25:50.455Z,12.20
2022-09-02T04:28:18.161Z,12.20
2022-09-02T04:30:51.330Z,12.30
2022-09-02T04:33:21.769Z,12.20
2022-09-02T04:35:50.470Z,12.30
2022-09-02T04:38:21.155Z,12.20
2022-09-02T04:40:48.724Z,12.30
2022-09-02T04:43:20.463Z,12.30
2022-09-02T04:45:50.915Z,12.30
2022-09-02T04:48:19.746Z,12.30
2022-09-02T04:50:51.191Z,12.30
2022-09-02T04:53:21.063Z,12.30
2022-09-02T04:55:57.804Z,12.40
2022-09-02T04:58:27.554Z,12.40
2022-09-02T05:00:59.853Z,12.50
2022-09-02T05:03:30.423Z,12.50
2022-09-02T05:06:02.405Z,12.60
2022-09-02T05:08:32.755Z,12.70
2022-09-02T05:11:02.140Z,12.70
2022-09-02T05:13:32.255Z,12.70
2022-09-02T05:15:59.828Z,12.80
2022-09-02T05:18:31.208Z,12.90
2022-09-02T05:21:05.393Z,13.00
2022-09-02T05:23:37.715Z,13.00
2022-09-02T05:26:07.028Z,13.00
2022-09-02T05:28:35.031Z,13.00
2022-09-02T05:31:12.711Z,13.00
2022-09-02T05:33:42.321Z,13.10
2022-09-02T05:36:15.679Z,13.20
2022-09-02T05:38:47.155Z,13.20
2022-09-02T05:41:23.034Z,13.30
2022-09-02T05:43:59.117Z,13.30
2022-09-02T05:46:35.456Z,13.40
2022-09-02T05:49:09.216Z,13.40
2022-09-02T05:51:52.959Z,13.50
2022-09-02T05:54:30.528Z,13.60
2022-09-02T05:57:09.451Z,13.70
2022-09-02T05:59:42.553Z,13.80
2022-09-02T06:02:14.351Z,13.90
2022-09-02T06:04:45.434Z,13.90
2022-09-02T06:07:14.497Z,13.80
2022-09-02T06:09:45.290Z,13.90
2022-09-02T06:12:19.856Z,13.90
2022-09-02T06:14:48.770Z,14.00
2022-09-02T06:17:20.242Z,14.10
2022-09-02T06:19:53.356Z,14.20
2022-09-02T06:22:24.551Z,14.20
2022-09-02T06:24:56.145Z,14.30
2022-09-02T06:27:26.663Z,14.40
2022-09-02T06:29:55.234Z,14.40
2022-09-02T06:32:24.787Z,14.50
2022-09-02T06:35:00.384Z,14.60
2022-09-02T06:37:29.563Z,14.70
2022-09-02T06:40:00.622Z,14.80
2022-09-02T06:42:29.813Z,14.90
2022-09-02T06:45:08.379Z,15.00
2022-09-02T06:47:37.411Z,15.00
2022-09-02T06:50:04.881Z,15.00
2022-09-02T06:52:32.684Z,15.00
2022-09-02T06:55:03.598Z,15.00
2022-09-02T06:57:34.422Z,15.10
2022-09-02T07:00:09.779Z,15.30
2022-09-02T07:02:37.895Z,15.30
2022-09-02T07:05:11.653Z,15.30
2022-09-02T07:07:42.138Z,15.40
2022-09-02T07:10:16.759Z,15.50
2022-09-02T07:12:50.071Z,15.60
2022-09-02T07:15:18.226Z,15.60
2022-09-02T07:17:49.327Z,15.70
2022-09-02T07:20:24.723Z,15.80
2022-09-02T07:22:56.804Z,15.80
2022-09-02T07:25:29.849Z,15.90
2022-09-02T07:27:57.225Z,15.80
2022-09-02T07:30:25.485Z,15.90
2022-09-02T07:32:59.114Z,16.00
2022-09-02T07:35:29.615Z,16.10
2022-09-02T07:38:03.738Z,16.10
2022-09-02T07:40:32.936Z,16.20
2022-09-02T07:43:00.724Z,16.20
2022-09-02T07:45:29.964Z,16.20
2022-09-02T07:47:58.273Z,16.30
2022-09-02T07:50:27.433Z,16.40
2022-09-02T07:53:01.160Z,16.40
2022-09-02T07:55:32.097Z,16.50
2022-09-02T07:58:00.285Z,16.60
2022-09-02T08:00:30.301Z,16.60
2022-09-02T08:03:04.495Z,16.60
2022-09-02T08:05:37.760Z,16.70
2022-09-02T08:08:06.139Z,16.70
2022-09-02T08:10:35.006Z,16.70
2022-09-02T08:13:06.505Z,16.80
2022-09-02T08:15:39.071Z,16.80
2022-09-02T08:18:12.538Z,16.80
2022-09-02T08:20:54.429Z,16.90
2022-09-02T08:23:36.025Z,17.00
2022-09-02T08:26:05.665Z,17.10
2022-09-02T08:28:33.066Z,17.10
2022-09-02T08:31:07.302Z,17.20
2022-09-02T08:33:37.986Z,17.10
2022-09-02T08:36:11.763Z,17.10
2022-09-02T08:38:42.650Z,17.20
2022-09-02T08:41:17.010Z,17.20
2022-09-02T08:43:49.087Z,17.20
2022-09-02T08:46:18.530Z,17.20
2022-09-02T08:48:55.762Z,17.20
2022-09-02T08:51:38.065Z,17.10
2022-09-02T08:54:07.989Z,17.20
2022-09-02T08:56:37.717Z,17.30
2022-09-02T08:59:06.384Z,17.30
2022-09-02T09:01:54.861Z,17.40
2022-09-02T09:04:59.853Z,17.40
2022-09-02T09:08:09.588Z,17.40
2022-09-02T09:10:59.042Z,17.40
2022-09-02T09:13:55.951Z,17.50
2022-09-02T09:17:08.154Z,17.60
2022-09-02T09:19:58.568Z,17.60
2022-09-02T09:22:37.472Z,17.70
2022-09-02T09:25:15.426Z,17.80
2022-09-02T09:27:46.139Z,17.90
2022-09-02T09:30:15.621Z,17.90
2022-09-02T09:32:52.320Z,18.00
2022-09-02T09:35:22.291Z,18.10
2022-09-02T09:37:52.494Z,18.20
2022-09-02T09:40:23.031Z,18.30
2022-09-02T09:43:24.561Z,18.30
2022-09-02T09:45:52.143Z,18.40
2022-09-02T09:48:36.949Z,18.40
2022-09-02T09:51:07.123Z,18.50
2022-09-02T09:53:39.032Z,18.40
2022-09-02T09:56:12.156Z,18.50
2022-09-02T09:58:42.004Z,18.60
2022-09-02T10:01:14.583Z,18.60
2022-09-02T10:03:48.696Z,18.60
2022-09-02T10:06:43.903Z,18.70
2022-09-02T10:09:15.103Z,18.80
2022-09-02T10:12:00.691Z,19.00
2022-09-02T10:14:40.229Z,19.20
2022-09-02T10:17:10.136Z,19.20
2022-09-02T10:20:22.491Z,19.40
2022-09-02T10:23:13.862Z,19.30
2022-09-02T10:25:58.661Z,19.50
2022-09-02T10:29:07.190Z,19.50
2022-09-02T10:32:08.786Z,19.50
2022-09-02T10:34:53.714Z,19.50
2022-09-02T10:37:26.980Z,19.60
2022-09-02T10:40:17.386Z,19.50
2022-09-02T10:42:47.917Z,19.30
2022-09-02T10:45:18.106Z,19.30
2022-09-02T10:47:59.031Z,19.20
2022-09-02T10:50:35.143Z,19.30
2022-09-02T10:53:43.015Z,19.40
2022-09-02T10:56:29.505Z,19.50
2022-09-02T11:01:41.791Z,19.50
2022-09-02T11:04:25.365Z,19.30
2022-09-02T11:07:04.544Z,19.30
2022-09-02T11:09:43.414Z,19.40
2022-09-02T11:12:15.887Z,19.40
2022-09-02T11:14:52.279Z,19.40
2022-09-02T11:17:27.785Z,19.40
2022-09-02T11:20:34.077Z,19.70
2022-09-02T11:23:19.836Z,19.80
2022-09-02T11:26:17.010Z,19.90
2022-09-02T11:29:07.755Z,20.00
2022-09-02T11:31:53.998Z,19.90
2022-09-02T11:34:46.187Z,19.90
2022-09-02T11:37:34.980Z,19.90
2022-09-02T11:40:33.346Z,19.70
2022-09-02T11:43:16.943Z,19.60
2022-09-02T11:45:47.559Z,19.60
2022-09-02T11:48:35.403Z,19.50
2022-09-02T11:51:17.241Z,19.60
2022-09-02T11:53:46.986Z,19.60
2022-09-02T11:56:21.960Z,19.50
2022-09-02T11:58:56.034Z,19.40
2022-09-02T12:01:43.985Z,19.20
2022-09-02T12:07:09.559Z,19.20
2022-09-02T12:09:55.301Z,19.30
2022-09-02T12:12:38.361Z,19.30
2022-09-02T12:15:17.960Z,19.20
2022-09-02T12:17:50.459Z,19.20
2022-09-02T12:20:43.299Z,19.10
2022-09-02T12:23:53.148Z,19.20
2022-09-02T12:26:50.761Z,18.90
2022-09-02T12:29:23.105Z,18.80
2022-09-02T12:31:55.018Z,18.80
2022-09-02T12:34:25.113Z,18.90
2022-09-02T12:36:56.354Z,19.00
2022-09-02T12:39:23.587Z,19.10
2022-09-02T12:42:12.644Z,19.20
2022-09-02T12:45:01.174Z,19.20
2022-09-02T12:47:49.482Z,19.30
2022-09-02T12:50:50.684Z,19.30
2022-09-02T12:53:23.680Z,19.20
2022-09-02T12:55:57.986Z,19.20
2022-09-02T12:58:33.734Z,19.30
2022-09-02T13:01:13.587Z,19.40
2022-09-02T13:04:22.848Z,19.70
2022-09-02T13:07:16.162Z,19.90
2022-09-02T13:10:05.131Z,19.90
2022-09-02T13:13:10.262Z,20.00
2022-09-02T13:15:56.438Z,20.20
2022-09-02T13:18:53.114Z,20.20
2022-09-02T13:21:26.075Z,20.30
2022-09-02T13:24:05.722Z,20.10
2022-09-02T13:26:50.627Z,20.20
2022-09-02T13:30:13.947Z,20.10
2022-09-02T13:32:41.790Z,20.00
2022-09-02T13:35:23.960Z,19.80
2022-09-02T13:37:56.283Z,19.80
2022-09-02T13:40:35.325Z,19.80
2022-09-02T13:43:05.215Z,19.70
2022-09-02T13:45:37.901Z,19.70
2022-09-02T13:48:11.120Z,19.70
2022-09-02T13:50:44.327Z,19.90
2022-09-02T13:54:05.135Z,20.00
2022-09-02T13:56:10.060Z,20.10
2022-09-02T13:58:52.666Z,20.30
2022-09-02T14:01:42.057Z,20.30
2022-09-02T14:04:18.118Z,20.30
2022-09-02T14:06:50.125Z,20.30
2022-09-02T14:09:27.021Z,20.00
2022-09-02T14:12:01.864Z,20.00
2022-09-02T14:14:33.076Z,19.70
2022-09-02T14:17:21.198Z,19.50
2022-09-02T14:19:52.688Z,19.40
2022-09-02T14:22:30.502Z,19.20
2022-09-02T14:25:00.441Z,19.10
2022-09-02T14:27:34.080Z,19.10
2022-09-02T14:30:07.171Z,19.20
2022-09-02T14:32:40.446Z,19.30
2022-09-02T14:35:16.891Z,19.30
2022-09-02T14:37:55.683Z,19.40
2022-09-02T14:40:37.110Z,19.50
2022-09-02T14:43:11.599Z,19.60
2022-09-02T14:45:47.795Z,19.60
2022-09-02T14:48:24.175Z,19.80
2022-09-02T14:51:02.902Z,19.80
2022-09-02T14:53:31.786Z,19.70
2022-09-02T14:56:01.696Z,19.50
2022-09-02T14:58:33.772Z,19.30
2022-09-02T15:01:02.345Z,19.20
2022-09-02T15:03:31.141Z,19.00
2022-09-02T15:05:58.648Z,18.90
2022-09-02T15:08:26.442Z,18.90
2022-09-02T15:10:54.767Z,18.80
2022-09-02T15:13:29.187Z,18.90
2022-09-02T15:16:01.211Z,18.90
2022-09-02T15:18:32.759Z,18.90
2022-09-02T15:21:03.216Z,18.90
2022-09-02T15:23:34.612Z,18.90
2022-09-02T15:26:05.260Z,18.90
2022-09-02T15:28:33.292Z,18.80
2022-09-02T15:31:01.885Z,18.80
2022-09-02T15:33:29.772Z,18.90
2022-09-02T15:36:12.688Z,18.90
2022-09-02T15:38:44.907Z,18.90
2022-09-02T15:41:21.351Z,18.90
2022-09-02T15:43:50.766Z,19.00
2022-09-02T15:46:25.912Z,19.10
2022-09-02T15:49:01.736Z,19.20
2022-09-02T15:51:35.079Z,19.30
2022-09-02T15:54:15.496Z,19.40
2022-09-02T15:56:45.423Z,19.50
2022-09-02T15:59:22.150Z,20.00
2022-09-02T16:01:52.032Z,21.60
2022-09-02T16:04:22.391Z,24.20
2022-09-02T16:06:52.851Z,24.30
2022-09-02T16:09:25.140Z,23.90
2022-09-02T16:14:26.626Z,26.80
2022-09-02T16:21:57.937Z,28.90
2022-09-02T16:24:25.200Z,27.80
2022-09-02T16:26:54.810Z,26.20
2022-09-02T16:29:26.956Z,24.60
2022-09-02T16:32:23.789Z,23.30
2022-09-02T16:34:45.383Z,22.20
2022-09-02T16:37:14.872Z,21.20
2022-09-02T16:39:42.655Z,20.80
2022-09-02T16:42:10.198Z,20.30
2022-09-02T16:44:37.580Z,20.00
2022-09-02T16:47:04.932Z,19.80
2022-09-02T16:49:34.523Z,19.60
2022-09-02T16:52:01.811Z,19.30
2022-09-02T16:54:33.605Z,19.10
2022-09-02T16:57:06.286Z,18.90
2022-09-02T16:59:33.552Z,18.80
2022-09-02T17:02:01.028Z,18.60
2022-09-02T17:04:29.484Z,18.40
2022-09-02T17:06:57.161Z,18.20
2022-09-02T17:09:24.707Z,18.10
2022-09-02T17:11:54.509Z,18.00
2022-09-02T17:14:21.858Z,17.80
2022-09-02T17:16:53.643Z,17.80
2022-09-02T17:19:22.392Z,17.70
2022-09-02T17:21:54.422Z,17.50
2022-09-02T17:24:32.093Z,17.50
2022-09-02T17:27:01.139Z,17.40
2022-09-02T17:32:19.990Z,17.20
2022-09-02T17:34:51.005Z,17.20
2022-09-02T17:37:19.127Z,17.00
2022-09-02T17:39:52.163Z,16.90
2022-09-02T17:42:21.461Z,16.80
2022-09-02T17:44:50.975Z,16.70
2022-09-02T17:47:22.658Z,16.60
2022-09-02T17:49:54.839Z,16.60
2022-09-02T17:52:24.915Z,16.50
2022-09-02T17:54:53.711Z,16.40
2022-09-02T17:57:42.609Z,16.40
2022-09-02T18:00:19.017Z,16.30
2022-09-02T18:03:34.971Z,16.30
2022-09-02T18:06:15.203Z,16.20
2022-09-02T18:08:45.758Z,16.20
2022-09-02T18:11:13.510Z,16.10
2022-09-02T18:14:06.879Z,16.10
2022-09-02T18:16:51.974Z,16.00
2022-09-02T18:20:00.907Z,16.00
2022-09-02T18:22:46.769Z,15.90
2022-09-02T18:25:53.334Z,15.90
2022-09-02T18:28:50.507Z,15.90
2022-09-02T18:31:52.199Z,15.90
2022-09-02T18:35:03.522Z,15.80
2022-09-02T18:38:09.810Z,15.80
2022-09-02T18:41:05.866Z,15.80
2022-09-02T18:43:55.685Z,15.70
2022-09-02T18:46:29.166Z,15.80
2022-09-02T18:49:03.785Z,15.70
2022-09-02T18:51:43.188Z,15.70
2022-09-02T18:54:22.988Z,15.70
2022-09-02T18:56:57.539Z,15.60
2022-09-02T18:59:52.756Z,15.60
2022-09-02T19:02:50.963Z,15.60
2022-09-02T19:05:23.274Z,15.60
2022-09-02T19:08:23.865Z,15.60
2022-09-02T19:11:00.981Z,15.50
2022-09-02T19:13:42.111Z,15.50
2022-09-02T19:16:11.792Z,15.50
2022-09-02T19:18:41.169Z,15.50
2022-09-02T19:21:13.195Z,15.60
2022-09-02T19:23:41.331Z,15.50
2022-09-02T19:26:11.488Z,15.50
2022-09-02T19:28:45.439Z,15.50
2022-09-02T19:31:20.082Z,15.50
2022-09-02T19:33:52.762Z,15.50
2022-09-02T19:36:31.418Z,15.50
2022-09-02T19:39:00.071Z,15.40
2022-09-02T19:41:30.319Z,15.40
2022-09-02T19:43:57.682Z,15.40
2022-09-02T19:47:06.924Z,15.40
2022-09-02T19:49:14.510Z,15.40
2022-09-02T19:51:44.351Z,15.40
2022-09-02T19:54:13.908Z,15.30
2022-09-02T19:56:43.566Z,15.30
2022-09-02T19:59:11.262Z,15.30
2022-09-02T20:01:43.226Z,15.30
2022-09-02T20:04:11.738Z,15.20
2022-09-02T20:06:39.546Z,15.20
2022-09-02T20:09:07.100Z,15.20
2022-09-02T20:11:35.087Z,15.20
2022-09-02T20:14:04.981Z,15.20
2022-09-02T20:16:33.265Z,15.20
2022-09-02T20:19:03.779Z,15.20
2022-09-02T20:21:40.196Z,15.20
2022-09-02T20:24:09.838Z,15.20
2022-09-02T20:27:00.343Z,15.20
2022-09-02T20:30:11.849Z,15.20
2022-09-02T20:33:00.214Z,15.10
2022-09-02T20:35:38.595Z,15.10
2022-09-02T20:38:46.108Z,15.10
2022-09-02T20:41:28.066Z,15.00
2022-09-02T20:44:31.056Z,15.00
2022-09-02T20:47:11.491Z,15.00
2022-09-02T20:49:50.255Z,15.00
2022-09-02T20:52:47.538Z,14.90
2022-09-02T20:55:25.879Z,14.90
2022-09-02T20:58:17.453Z,14.90
2022-09-02T21:01:07.698Z,14.80
2022-09-02T21:04:03.660Z,14.80
2022-09-02T21:06:36.630Z,14.80
2022-09-02T21:09:24.266Z,14.80
2022-09-02T21:12:03.801Z,14.80
2022-09-02T21:14:40.398Z,14.80
2022-09-02T21:17:12.665Z,14.80
2022-09-02T21:19:54.658Z,14.70
2022-09-02T21:22:28.992Z,14.70
2022-09-02T21:25:05.870Z,14.70
2022-09-02T21:27:45.096Z,14.60
2022-09-02T21:30:23.749Z,14.60
2022-09-02T21:33:05.656Z,14.60
2022-09-02T21:35:42.022Z,14.60
2022-09-02T21:38:22.026Z,14.60
2022-09-02T21:41:04.023Z,14.60
2022-09-02T21:44:14.065Z,14.50
2022-09-02T21:47:13.456Z,14.50
2022-09-02T21:50:10.802Z,14.50
2022-09-02T21:52:47.334Z,14.50
2022-09-02T21:55:55.576Z,14.40
2022-09-02T21:59:03.573Z,14.40
2022-09-02T22:01:58.034Z,14.40
2022-09-02T22:05:00.265Z,14.40
2022-09-02T22:07:42.145Z,14.30
2022-09-02T22:10:36.417Z,14.30
2022-09-02T22:13:04.061Z,14.30
2022-09-02T22:15:58.048Z,14.30
2022-09-02T22:18:39.456Z,14.30
2022-09-02T22:21:40.879Z,14.30
2022-09-02T22:24:13.171Z,14.20
2022-09-02T22:27:02.867Z,14.20
2022-09-02T22:30:09.192Z,14.20
2022-09-02T22:32:40.871Z,14.20
2022-09-02T22:35:25.149Z,14.20
2022-09-02T22:37:56.842Z,14.20
2022-09-02T22:40:32.496Z,14.20
2022-09-02T22:43:09.132Z,14.10
2022-09-02T22:46:04.514Z,14.10
2022-09-02T22:48:58.776Z,14.10
2022-09-02T22:51:54.626Z,14.10
2022-09-02T22:54:22.025Z,14.00
2022-09-02T22:57:24.678Z,14.00
2022-09-02T23:00:08.386Z,14.00
2022-09-02T23:02:46.521Z,13.90
2022-09-02T23:05:41.587Z,13.90
2022-09-02T23:08:09.840Z,13.90
2022-09-02T23:11:07.171Z,13.90
2022-09-02T23:13:57.959Z,13.80
2022-09-02T23:16:46.790Z,13.80
2022-09-02T23:19:56.494Z,13.80
2022-09-02T23:22:41.687Z,13.80
2022-09-02T23:25:23.876Z,13.70
2022-09-02T23:28:17.154Z,13.70
2022-09-02T23:31:10.266Z,13.70
2022-09-02T23:34:07.009Z,13.70
2022-09-02T23:36:52.307Z,13.60
2022-09-02T23:39:45.649Z,13.60
2022-09-02T23:42:20.597Z,13.60
2022-09-02T23:44:49.550Z,13.60
2022-09-02T23:47:53.291Z,13.60
2022-09-02T23:50:45.054Z,13.60
2022-09-02T23:53:24.307Z,13.60
2022-09-02T23:56:13.261Z,13.50
2022-09-02T23:58:43.395Z,13.50
